createdAt,value
2019-01-19T00:00:27.307Z,1.00
2019-01-19T00:01:27.287Z,1.02
2019-01-19T00:02:27.272Z,0.99
2019-01-19T00:03:27.260Z,1.00
2019-01-19T00:04:27.250Z,0.98
2019-01-19T00:05:27.237Z,0.92
2019-01-19T00:06:27.220Z,0.98
2019-01-19T00:07:27.209Z,0.90
2019-01-19T00:08:27.197Z,0.92
2019-01-19T00:09:27.188Z,0.88
2019-01-19T00:10:27.180Z,0.88
2019-01-19T00:11:27.161Z,0.91
2019-01-19T00:12:27.154Z,0.98
2019-01-19T00:13:27.137Z,0.92
2019-01-19T00:14:27.122Z,0.98
2019-01-19T00:15:27.111Z,0.91
2019-01-19T00:16:27.100Z,0.96
2019-01-19T00:17:27.085Z,0.91
2019-01-19T00:18:27.075Z,0.96
2019-01-19T00:19:27.070Z,0.87
2019-01-19T00:20:27.047Z,1.02
2019-01-19T00:21:27.034Z,0.92
2019-01-19T00:22:27.027Z,0.99
2019-01-19T00:23:27.012Z,0.98
2019-01-19T00:24:27.002Z,0.98
2019-01-19T00:25:27.000Z,0.94
2019-01-19T00:26:26.985Z,0.94
2019-01-19T00:27:26.963Z,0.90
2019-01-19T00:28:26.961Z,0.94
2019-01-19T00:29:26.934Z,0.96
2019-01-19T00:30:26.927Z,0.92
2019-01-19T00:31:26.923Z,0.91
2019-01-19T00:32:26.902Z,0.98
2019-01-19T00:33:26.894Z,0.98
2019-01-19T00:34:33.835Z,0.88
2019-01-19T00:35:26.866Z,0.91
2019-01-19T00:36:26.853Z,0.94
2019-01-19T00:37:26.842Z,1.00
2019-01-19T00:38:26.827Z,1.00
2019-01-19T00:39:26.813Z,0.91
2019-01-19T00:40:26.806Z,0.94
2019-01-19T00:41:26.787Z,0.94
2019-01-19T00:42:26.779Z,0.87
2019-01-19T00:43:26.767Z,0.90
2019-01-19T00:44:26.753Z,0.88
2019-01-19T00:45:26.742Z,0.94
2019-01-19T00:46:26.730Z,0.87
2019-01-19T00:47:26.720Z,0.92
2019-01-19T00:48:26.701Z,0.92
2019-01-19T00:49:26.688Z,0.94
2019-01-19T00:50:26.678Z,0.85
2019-01-19T00:51:26.661Z,0.92
2019-01-19T00:52:26.652Z,0.91
2019-01-19T00:53:26.638Z,0.92
2019-01-19T00:54:26.630Z,0.84
2019-01-19T00:55:26.622Z,0.87
2019-01-19T00:56:26.609Z,0.85
2019-01-19T00:57:26.601Z,0.87
2019-01-19T00:58:26.572Z,0.78
2019-01-19T00:59:26.565Z,0.78
2019-01-19T01:00:26.564Z,0.74
2019-01-19T01:01:26.538Z,0.81
2019-01-19T01:02:26.529Z,0.74
2019-01-19T01:03:26.517Z,0.85
2019-01-19T01:04:26.506Z,0.78
2019-01-19T01:05:26.500Z,0.80
2019-01-19T01:06:26.473Z,0.85
2019-01-19T01:07:26.465Z,0.81
2019-01-19T01:08:26.455Z,0.87
2019-01-19T01:09:26.444Z,0.81
2019-01-19T01:10:26.444Z,0.84
2019-01-19T01:11:26.415Z,0.84
2019-01-19T01:12:26.416Z,0.87
2019-01-19T01:13:26.389Z,0.78
2019-01-19T01:14:26.376Z,0.80
2019-01-19T01:15:26.381Z,0.82
2019-01-19T01:16:26.364Z,0.80
2019-01-19T01:17:26.344Z,0.78
2019-01-19T01:18:26.333Z,0.82
2019-01-19T01:19:26.317Z,0.78
2019-01-19T01:20:26.305Z,0.74
2019-01-19T01:21:26.293Z,0.80
2019-01-19T01:22:26.286Z,0.69
2019-01-19T01:23:26.269Z,0.70
2019-01-19T01:24:26.255Z,0.74
2019-01-19T01:25:26.241Z,0.73
2019-01-19T01:26:26.235Z,0.78
2019-01-19T01:27:26.220Z,0.72
2019-01-19T01:28:26.208Z,0.67
2019-01-19T01:29:26.199Z,0.63
2019-01-19T01:30:26.182Z,0.66
2019-01-19T01:31:26.168Z,0.67
2019-01-19T01:32:26.162Z,0.67
2019-01-19T01:33:26.143Z,0.63
2019-01-19T01:34:26.142Z,0.59
2019-01-19T01:35:32.453Z,0.53
2019-01-19T01:36:26.117Z,0.50
2019-01-19T01:37:26.095Z,0.53
2019-01-19T01:38:26.081Z,0.48
2019-01-19T01:39:26.070Z,0.62
2019-01-19T01:40:26.061Z,0.56
2019-01-19T01:41:26.044Z,0.50
2019-01-19T01:42:26.037Z,0.45
2019-01-19T01:43:26.017Z,0.53
2019-01-19T01:44:26.006Z,0.55
2019-01-19T01:45:25.994Z,0.45
2019-01-19T01:46:26.031Z,0.56
2019-01-19T01:47:25.971Z,0.50
2019-01-19T01:48:25.958Z,0.51
2019-01-19T01:49:25.946Z,0.47
2019-01-19T01:50:25.933Z,0.45
2019-01-19T01:51:25.920Z,0.41
2019-01-19T01:52:25.908Z,0.47
2019-01-19T01:53:25.894Z,0.45
2019-01-19T01:54:25.885Z,0.43
2019-01-19T01:55:25.876Z,0.48
2019-01-19T01:56:25.858Z,0.44
2019-01-19T01:57:25.839Z,0.45
2019-01-19T01:58:25.831Z,0.43
2019-01-19T01:59:25.830Z,0.45
2019-01-19T02:00:25.812Z,0.43
2019-01-19T02:01:25.798Z,0.41
2019-01-19T02:02:25.791Z,0.45
2019-01-19T02:03:25.770Z,0.45
2019-01-19T02:04:25.770Z,0.44
2019-01-19T02:05:25.746Z,0.37
2019-01-19T02:06:25.735Z,0.40
2019-01-19T02:07:25.724Z,0.41
2019-01-19T02:08:25.711Z,0.37
2019-01-19T02:09:25.698Z,0.50
2019-01-19T02:10:25.682Z,0.44
2019-01-19T02:11:25.681Z,0.44
2019-01-19T02:12:25.665Z,0.43
2019-01-19T02:13:25.643Z,0.43
2019-01-19T02:14:25.632Z,0.37
2019-01-19T02:15:25.621Z,0.40
2019-01-19T02:16:25.612Z,0.35
2019-01-19T02:17:25.593Z,0.35
2019-01-19T02:18:25.590Z,0.43
2019-01-19T02:19:25.573Z,0.41
2019-01-19T02:20:25.562Z,0.41
2019-01-19T02:21:25.553Z,0.40
2019-01-19T02:22:25.537Z,0.30
2019-01-19T02:23:25.525Z,0.33
2019-01-19T02:24:25.508Z,0.37
2019-01-19T02:25:25.494Z,0.35
2019-01-19T02:26:25.484Z,0.33
2019-01-19T02:27:25.465Z,0.40
2019-01-19T02:28:25.459Z,0.30
2019-01-19T02:29:25.458Z,0.33
2019-01-19T02:30:25.439Z,0.36
2019-01-19T02:31:25.427Z,0.35
2019-01-19T02:32:25.413Z,0.33
2019-01-19T02:33:25.396Z,0.40
2019-01-19T02:34:25.395Z,0.40
2019-01-19T02:35:25.370Z,0.37
2019-01-19T02:36:25.356Z,0.37
2019-01-19T02:37:25.340Z,0.32
2019-01-19T02:38:25.344Z,0.35
2019-01-19T02:39:25.323Z,0.41
2019-01-19T02:40:25.309Z,0.36
2019-01-19T02:41:25.290Z,0.29
2019-01-19T02:42:25.282Z,0.35
2019-01-19T02:43:25.279Z,0.29
2019-01-19T02:44:25.261Z,0.32
2019-01-19T02:45:25.252Z,0.29
2019-01-19T02:46:25.240Z,0.37
2019-01-19T02:47:25.241Z,0.32
2019-01-19T02:48:25.207Z,0.30
2019-01-19T02:49:25.183Z,0.25
2019-01-19T02:50:25.183Z,0.30
2019-01-19T02:51:25.171Z,0.30
2019-01-19T02:52:25.162Z,0.23
2019-01-19T02:53:25.150Z,0.23
2019-01-19T02:54:25.130Z,0.23
2019-01-19T02:55:25.118Z,0.23
2019-01-19T02:56:25.105Z,0.18
2019-01-19T02:57:25.090Z,0.17
2019-01-19T02:58:25.088Z,0.15
2019-01-19T02:59:25.070Z,0.07
2019-01-19T03:00:25.055Z,0.12
2019-01-19T03:01:25.042Z,0.07
2019-01-19T03:02:25.042Z,0.09
2019-01-19T03:03:25.021Z,0.08
2019-01-19T03:04:24.999Z,0.09
2019-01-19T03:05:24.995Z,0.12
2019-01-19T03:06:24.977Z,0.15
2019-01-19T03:07:24.970Z,0.14
2019-01-19T03:08:24.953Z,0.08
2019-01-19T03:09:24.947Z,0.14
2019-01-19T03:10:24.932Z,0.09
2019-01-19T03:11:24.924Z,0.07
2019-01-19T03:12:24.909Z,0.02
2019-01-19T03:13:24.892Z,0.15
2019-01-19T03:14:24.879Z,-0.04
2019-01-19T03:15:24.868Z,0.09
2019-01-19T03:16:24.857Z,0.00
2019-01-19T03:17:24.845Z,0.05
2019-01-19T03:18:24.824Z,0.05
2019-01-19T03:19:24.817Z,0.05
2019-01-19T03:20:24.812Z,0.07
2019-01-19T03:21:24.799Z,0.09
2019-01-19T03:22:24.789Z,0.07
2019-01-19T03:23:24.776Z,-0.03
2019-01-19T03:24:24.760Z,0.00
2019-01-19T03:25:24.743Z,-0.04
2019-01-19T03:26:24.730Z,-0.03
2019-01-19T03:27:24.714Z,0.02
2019-01-19T03:28:24.701Z,-0.03
2019-01-19T03:29:24.692Z,-0.03
2019-01-19T03:30:24.681Z,-0.03
2019-01-19T03:31:24.680Z,-0.06
2019-01-19T03:32:24.653Z,-0.06
2019-01-19T03:33:24.643Z,-0.04
2019-01-19T03:34:24.630Z,-0.01
2019-01-19T03:35:24.618Z,-0.04
2019-01-19T03:36:24.605Z,-0.07
2019-01-19T03:37:24.595Z,-0.09
2019-01-19T03:38:24.576Z,-0.06
2019-01-19T03:39:24.563Z,-0.06
2019-01-19T03:40:24.550Z,-0.13
2019-01-19T03:41:24.539Z,-0.16
2019-01-19T03:42:24.527Z,-0.09
2019-01-19T03:43:24.530Z,-0.09
2019-01-19T03:44:24.502Z,-0.14
2019-01-19T03:45:24.494Z,-0.14
2019-01-19T03:46:24.481Z,-0.13
2019-01-19T03:47:24.466Z,-0.11
2019-01-19T03:48:24.463Z,-0.11
2019-01-19T03:49:24.438Z,-0.22
2019-01-19T03:50:24.426Z,-0.21
2019-01-19T03:51:24.410Z,-0.13
2019-01-19T03:52:24.398Z,-0.29
2019-01-19T03:53:24.387Z,-0.32
2019-01-19T03:54:24.371Z,-0.27
2019-01-19T03:55:24.364Z,-0.32
2019-01-19T03:56:24.351Z,-0.38
2019-01-19T03:57:24.336Z,-0.38
2019-01-19T03:58:24.327Z,-0.40
2019-01-19T03:59:24.306Z,-0.39
2019-01-19T04:00:24.296Z,-0.40
2019-01-19T04:01:24.297Z,-0.38
2019-01-19T04:02:24.277Z,-0.31
2019-01-19T04:03:24.258Z,-0.34
2019-01-19T04:04:24.247Z,-0.34
2019-01-19T04:05:24.240Z,-0.43
2019-01-19T04:06:24.223Z,-0.35
2019-01-19T04:07:24.211Z,-0.34
2019-01-19T04:08:24.200Z,-0.28
2019-01-19T04:09:24.186Z,-0.31
2019-01-19T04:10:24.172Z,-0.32
2019-01-19T04:11:24.156Z,-0.34
2019-01-19T04:12:24.149Z,-0.34
2019-01-19T04:13:24.134Z,-0.32
2019-01-19T04:14:24.123Z,-0.40
2019-01-19T04:15:24.114Z,-0.40
2019-01-19T04:16:24.098Z,-0.42
2019-01-19T04:17:24.084Z,-0.43
2019-01-19T04:18:24.067Z,-0.47
2019-01-19T04:19:24.054Z,-0.45
2019-01-19T04:20:24.095Z,-0.46
2019-01-19T04:21:24.033Z,-0.35
2019-01-19T04:22:24.020Z,-0.45
2019-01-19T04:23:24.001Z,-0.53
2019-01-19T04:24:23.994Z,-0.55
2019-01-19T04:25:23.980Z,-0.49
2019-01-19T04:26:23.969Z,-0.53
2019-01-19T04:27:23.952Z,-0.53
2019-01-19T04:28:23.945Z,-0.58
2019-01-19T04:29:23.930Z,-0.53
2019-01-19T04:30:23.915Z,-0.46
2019-01-19T04:31:23.904Z,-0.47
2019-01-19T04:32:23.890Z,-0.61
2019-01-19T04:33:23.881Z,-0.50
2019-01-19T04:34:23.870Z,-0.53
2019-01-19T04:35:23.856Z,-0.60
2019-01-19T04:36:23.856Z,-0.57
2019-01-19T04:37:23.828Z,-0.60
2019-01-19T04:38:23.816Z,-0.57
2019-01-19T04:39:23.811Z,-0.53
2019-01-19T04:40:23.811Z,-0.64
2019-01-19T04:41:23.780Z,-0.57
2019-01-19T04:42:23.762Z,-0.57
2019-01-19T04:43:23.748Z,-0.60
2019-01-19T04:44:23.737Z,-0.52
2019-01-19T04:45:23.724Z,-0.63
2019-01-19T04:46:23.712Z,-0.61
2019-01-19T04:47:23.700Z,-0.64
2019-01-19T04:48:23.688Z,-0.55
2019-01-19T04:49:23.680Z,-0.61
2019-01-19T04:50:23.660Z,-0.63
2019-01-19T04:51:23.654Z,-0.63
2019-01-19T04:52:23.637Z,-0.58
2019-01-19T04:53:23.637Z,-0.67
2019-01-19T04:54:23.630Z,-0.63
2019-01-19T04:55:23.595Z,-0.68
2019-01-19T04:56:23.583Z,-0.64
2019-01-19T04:57:23.574Z,-0.60
2019-01-19T04:58:23.565Z,-0.66
2019-01-19T04:59:23.551Z,-0.67
2019-01-19T05:00:23.535Z,-0.64
2019-01-19T05:01:23.520Z,-0.68
2019-01-19T05:02:23.506Z,-0.67
2019-01-19T05:03:23.495Z,-0.67
2019-01-19T05:04:23.480Z,-0.70
2019-01-19T05:05:23.471Z,-0.68
2019-01-19T05:06:30.378Z,-0.66
2019-01-19T05:07:23.444Z,-0.63
2019-01-19T05:08:23.426Z,-0.64
2019-01-19T05:09:23.416Z,-0.61
2019-01-19T05:10:23.408Z,-0.70
2019-01-19T05:11:23.394Z,-0.67
2019-01-19T05:12:23.383Z,-0.66
2019-01-19T05:13:23.376Z,-0.66
2019-01-19T05:14:23.360Z,-0.64
2019-01-19T05:15:23.339Z,-0.67
2019-01-19T05:16:23.327Z,-0.60
2019-01-19T05:17:23.321Z,-0.68
2019-01-19T05:18:23.315Z,-0.68
2019-01-19T05:19:23.303Z,-0.68
2019-01-19T05:20:23.279Z,-0.63
2019-01-19T05:21:23.276Z,-0.73
2019-01-19T05:22:23.254Z,-0.67
2019-01-19T05:23:23.236Z,-0.75
2019-01-19T05:24:23.232Z,-0.75
2019-01-19T05:25:23.216Z,-0.64
2019-01-19T05:26:23.200Z,-0.67
2019-01-19T05:27:23.185Z,-0.68
2019-01-19T05:28:23.175Z,-0.64
2019-01-19T05:29:23.160Z,-0.71
2019-01-19T05:30:23.152Z,-0.68
2019-01-19T05:31:23.139Z,-0.67
2019-01-19T05:32:23.125Z,-0.63
2019-01-19T05:33:23.111Z,-0.64
2019-01-19T05:34:23.097Z,-0.78
2019-01-19T05:35:23.089Z,-0.75
2019-01-19T05:36:23.072Z,-0.78
2019-01-19T05:37:23.060Z,-0.70
2019-01-19T05:38:23.046Z,-0.75
2019-01-19T05:39:23.040Z,-0.70
2019-01-19T05:40:23.026Z,-0.70
2019-01-19T05:41:23.003Z,-0.67
2019-01-19T05:42:23.000Z,-0.68
2019-01-19T05:43:22.987Z,-0.76
2019-01-19T05:44:22.978Z,-0.81
2019-01-19T05:45:22.967Z,-0.78
2019-01-19T05:46:22.948Z,-0.76
2019-01-19T05:47:22.933Z,-0.75
2019-01-19T05:48:22.921Z,-0.82
2019-01-19T05:49:22.915Z,-0.79
2019-01-19T05:50:22.897Z,-0.75
2019-01-19T05:51:22.891Z,-0.68
2019-01-19T05:52:22.877Z,-0.76
2019-01-19T05:53:22.861Z,-0.73
2019-01-19T05:54:22.845Z,-0.82
2019-01-19T05:55:22.831Z,-0.75
2019-01-19T05:56:22.821Z,-0.76
2019-01-19T05:57:22.808Z,-0.78
2019-01-19T05:58:22.793Z,-0.79
2019-01-19T05:59:22.787Z,-0.79
2019-01-19T06:00:22.776Z,-0.75
2019-01-19T06:01:22.756Z,-0.84
2019-01-19T06:02:22.750Z,-0.79
2019-01-19T06:03:22.732Z,-0.84
2019-01-19T06:04:22.721Z,-0.86
2019-01-19T06:05:22.709Z,-0.76
2019-01-19T06:06:22.749Z,-0.90
2019-01-19T06:07:22.679Z,-0.79
2019-01-19T06:08:22.665Z,-0.68
2019-01-19T06:09:22.670Z,-0.75
2019-01-19T06:10:22.647Z,-0.68
2019-01-19T06:11:22.634Z,-0.67
2019-01-19T06:12:22.614Z,-0.82
2019-01-19T06:13:22.605Z,-0.79
2019-01-19T06:14:22.591Z,-0.81
2019-01-19T06:15:23.372Z,-0.81
2019-01-19T06:16:22.568Z,-0.79
2019-01-19T06:17:22.546Z,-0.82
2019-01-19T06:18:22.540Z,-0.82
2019-01-19T06:19:22.539Z,-0.86
2019-01-19T06:20:22.528Z,-0.82
2019-01-19T06:21:23.508Z,-0.94
2019-01-19T06:22:22.491Z,-0.78
2019-01-19T06:23:22.487Z,-0.85
2019-01-19T06:24:22.466Z,-1.00
2019-01-19T06:25:22.467Z,-0.95
2019-01-19T06:26:22.440Z,-0.84
2019-01-19T06:27:22.427Z,-0.86
2019-01-19T06:28:22.418Z,-1.04
2019-01-19T06:29:22.402Z,-1.01
2019-01-19T06:30:22.387Z,-1.03
2019-01-19T06:31:22.376Z,-0.97
2019-01-19T06:32:22.362Z,-0.95
2019-01-19T06:33:22.362Z,-0.97
2019-01-19T06:34:22.337Z,-0.98
2019-01-19T06:35:22.327Z,-1.05
2019-01-19T06:36:22.314Z,-1.03
2019-01-19T06:37:22.305Z,-1.05
2019-01-19T06:38:22.283Z,-1.05
2019-01-19T06:39:22.273Z,-1.08
2019-01-19T06:40:22.265Z,-1.13
2019-01-19T06:41:22.249Z,-1.04
2019-01-19T06:42:22.236Z,-1.10
2019-01-19T06:43:22.224Z,-1.11
2019-01-19T06:44:22.208Z,-1.05
2019-01-19T06:45:22.197Z,-1.10
2019-01-19T06:46:22.186Z,-1.15
2019-01-19T06:47:22.172Z,-1.16
2019-01-19T06:48:22.164Z,-1.10
2019-01-19T06:49:22.148Z,-1.13
2019-01-19T06:50:22.134Z,-1.15
2019-01-19T06:51:22.119Z,-1.07
2019-01-19T06:52:22.108Z,-1.04
2019-01-19T06:53:22.097Z,-1.11
2019-01-19T06:54:22.085Z,-1.07
2019-01-19T06:55:22.075Z,-1.00
2019-01-19T06:56:22.061Z,-1.07
2019-01-19T06:57:22.041Z,-1.11
2019-01-19T06:58:22.030Z,-1.08
2019-01-19T06:59:22.020Z,-1.03
2019-01-19T07:00:22.159Z,-1.16
2019-01-19T07:01:21.995Z,-1.07
2019-01-19T07:02:21.985Z,-1.13
2019-01-19T07:03:21.968Z,-1.11
2019-01-19T07:04:21.956Z,-1.04
2019-01-19T07:05:21.943Z,-1.01
2019-01-19T07:06:21.934Z,-1.10
2019-01-19T07:07:21.922Z,-1.05
2019-01-19T07:08:21.920Z,-1.03
2019-01-19T07:09:21.898Z,-1.03
2019-01-19T07:10:22.636Z,-0.98
2019-01-19T07:11:21.870Z,-1.03
2019-01-19T07:12:21.859Z,-1.08
2019-01-19T07:13:21.839Z,-1.13
2019-01-19T07:14:21.844Z,-1.15
2019-01-19T07:15:21.813Z,-1.11
2019-01-19T07:16:21.808Z,-1.11
2019-01-19T07:17:21.791Z,-1.13
2019-01-19T07:18:21.787Z,-1.16
2019-01-19T07:19:21.780Z,-1.22
2019-01-19T07:20:21.774Z,-1.11
2019-01-19T07:21:21.756Z,-1.16
2019-01-19T07:22:21.729Z,-1.10
2019-01-19T07:23:21.715Z,-1.16
2019-01-19T07:24:21.703Z,-1.11
2019-01-19T07:25:21.689Z,-1.10
2019-01-19T07:26:21.682Z,-1.11
2019-01-19T07:27:21.660Z,-1.08
2019-01-19T07:28:21.656Z,-1.08
2019-01-19T07:29:21.641Z,-1.05
2019-01-19T07:30:21.628Z,-1.10
2019-01-19T07:31:21.623Z,-1.04
2019-01-19T07:32:22.363Z,-1.01
2019-01-19T07:33:21.591Z,-1.00
2019-01-19T07:34:21.574Z,-1.00
2019-01-19T07:35:21.563Z,-0.97
2019-01-19T07:36:21.553Z,-0.82
2019-01-19T07:37:21.536Z,-0.92
2019-01-19T07:38:21.524Z,-0.85
2019-01-19T07:39:21.516Z,-0.86
2019-01-19T07:40:21.503Z,-0.81
2019-01-19T07:41:21.489Z,-0.71
2019-01-19T07:42:21.526Z,-0.68
2019-01-19T07:43:21.462Z,-0.76
2019-01-19T07:44:29.054Z,-0.73
2019-01-19T07:48:25.771Z,-0.61
2019-01-19T07:49:25.607Z,-0.66
2019-01-19T07:51:20.212Z,-0.55
2019-01-19T07:52:19.965Z,-0.60
2019-01-19T07:54:14.610Z,-0.49
2019-01-19T07:55:14.307Z,-0.53
2019-01-19T07:57:08.869Z,-0.47
2019-01-19T07:58:08.662Z,-0.40
2019-01-19T08:00:03.106Z,-0.38
2019-01-19T08:01:03.034Z,-0.38
2019-01-19T08:02:57.765Z,-0.35
2019-01-19T08:03:57.443Z,-0.32
2019-01-19T08:05:50.725Z,-0.17
2019-01-19T08:06:52.204Z,-0.13
2019-01-19T08:08:45.224Z,-0.03
2019-01-19T08:09:45.263Z,-0.03
2019-01-19T08:11:39.673Z,-0.01
2019-01-19T08:12:38.994Z,0.09
2019-01-19T08:14:37.417Z,0.04
2019-01-19T08:15:36.526Z,0.07
2019-01-19T08:17:31.815Z,0.08
2019-01-19T08:18:31.447Z,0.08
2019-01-19T08:20:24.578Z,0.25
2019-01-19T08:21:24.536Z,0.23
2019-01-19T08:23:19.001Z,0.37
2019-01-19T08:24:18.832Z,0.35
2019-01-19T08:26:12.277Z,0.41
2019-01-19T08:27:12.328Z,0.40
2019-01-19T08:29:06.643Z,0.45
2019-01-19T08:30:06.544Z,0.55
2019-01-19T08:32:00.862Z,0.67
2019-01-19T08:33:00.550Z,0.81
2019-01-19T08:34:54.679Z,0.88
2019-01-19T08:35:54.280Z,0.99
2019-01-19T08:37:49.208Z,1.12
2019-01-19T08:38:48.762Z,1.20
2019-01-19T08:42:17.346Z,1.28
2019-01-19T08:43:20.867Z,1.34
2019-01-19T08:44:23.414Z,1.45
2019-01-19T08:46:09.557Z,1.41
2019-01-19T08:52:44.529Z,1.55
2019-01-19T08:53:42.559Z,1.56
2019-01-19T08:54:42.515Z,1.49
2019-01-19T08:55:49.961Z,1.49
2019-01-19T08:56:42.463Z,1.57
2019-01-19T08:57:42.453Z,1.56
2019-01-19T08:58:42.493Z,1.59
2019-01-19T08:59:42.052Z,1.63
2019-01-19T09:00:42.024Z,1.60
2019-01-19T09:01:42.018Z,1.67
2019-01-19T09:02:42.009Z,1.67
2019-01-19T09:03:48.118Z,1.78
2019-01-19T09:04:41.988Z,1.81
2019-01-19T09:06:00.595Z,1.85
2019-01-19T09:08:14.528Z,1.84
2019-01-19T09:11:10.970Z,1.99
2019-01-19T09:12:08.883Z,1.99
2019-01-19T09:14:04.703Z,2.10
2019-01-19T09:16:18.246Z,1.91
2019-01-19T09:17:18.097Z,1.87
2019-01-19T09:20:44.745Z,1.97
2019-01-19T09:21:44.624Z,2.04
2019-01-19T09:23:39.759Z,2.00
2019-01-19T09:24:39.552Z,2.06
2019-01-19T09:26:32.993Z,2.04
2019-01-19T09:27:32.553Z,1.99
2019-01-19T16:49:56.339Z,1.55
2019-01-19T16:50:56.302Z,1.55
2019-01-19T16:52:49.686Z,1.64
2019-01-19T16:53:50.775Z,1.63
2019-01-19T16:55:44.033Z,1.63
2019-01-19T16:56:44.001Z,1.60
2019-01-19T16:58:37.381Z,1.67
2019-01-19T16:59:37.343Z,1.67
2019-01-19T17:01:31.728Z,1.67
2019-01-19T17:02:31.678Z,1.63
2019-01-19T17:04:26.052Z,1.66
2019-01-19T17:05:26.021Z,1.71
2019-01-19T17:07:20.748Z,1.63
2019-01-19T17:08:20.714Z,1.63
2019-01-19T17:10:15.111Z,1.55
2019-01-19T17:11:15.064Z,1.62
2019-01-19T17:13:09.444Z,1.66
2019-01-19T17:14:09.405Z,1.62
2019-01-19T17:16:03.779Z,1.56
2019-01-19T17:17:03.750Z,1.55
2019-01-19T17:18:57.129Z,1.57
2019-01-19T17:19:57.096Z,1.63
2019-01-19T17:21:51.469Z,1.57
2019-01-19T17:22:51.435Z,1.55
2019-01-19T17:24:45.804Z,1.49
2019-01-19T17:25:45.779Z,1.38
2019-01-19T17:27:40.153Z,1.35
2019-01-19T17:28:40.121Z,1.28
2019-01-19T17:30:34.684Z,1.27
2019-01-19T17:31:34.651Z,1.18
2019-01-19T17:33:28.041Z,1.18
2019-01-19T17:34:28.000Z,1.17
2019-01-19T17:36:22.811Z,1.24
2019-01-19T17:37:22.776Z,1.10
2019-01-19T17:39:17.193Z,1.13
2019-01-19T17:40:17.157Z,1.13
2019-01-19T17:42:11.534Z,1.13
2019-01-19T17:43:11.504Z,1.06
2019-01-19T17:45:05.882Z,1.10
2019-01-19T17:46:05.849Z,1.03
2019-01-19T17:47:59.218Z,0.92
2019-01-19T17:48:59.182Z,1.06
2019-01-19T17:50:53.561Z,1.03
2019-01-19T17:51:53.527Z,1.00
2019-01-19T17:53:47.919Z,0.96
2019-01-19T17:54:47.871Z,0.98
2019-01-19T17:56:42.241Z,0.91
2019-01-19T17:57:42.208Z,0.94
2019-01-19T17:59:36.587Z,0.92
2019-01-19T18:00:36.549Z,0.87
2019-01-19T18:02:31.001Z,0.94
2019-01-19T18:03:30.895Z,0.88
2019-01-19T18:05:25.271Z,0.85
2019-01-19T18:06:25.234Z,0.82
2019-01-19T18:08:19.995Z,0.84
2019-01-19T18:09:19.964Z,0.80
2019-01-19T18:11:14.914Z,0.76
2019-01-19T18:12:14.301Z,0.76
2019-01-19T18:14:07.684Z,0.74
2019-01-19T18:15:07.652Z,0.80
2019-01-19T18:17:02.031Z,0.80
2019-01-19T18:18:01.995Z,0.85
2019-01-19T18:19:55.375Z,0.87
2019-01-19T18:20:55.345Z,0.88
2019-01-19T18:22:49.709Z,0.82
2019-01-19T18:23:49.686Z,0.90
2019-01-19T18:25:44.057Z,0.82
2019-01-19T18:26:44.026Z,0.81
2019-01-19T18:28:38.511Z,0.78
2019-01-19T18:29:38.482Z,0.91
2019-01-19T18:31:32.055Z,0.91
2019-01-19T18:32:32.020Z,0.92
2019-01-19T18:34:26.436Z,0.96
2019-01-19T18:35:26.371Z,0.98
2019-01-19T18:37:21.332Z,1.10
2019-01-19T18:38:20.824Z,1.02
2019-01-19T18:40:14.198Z,1.03
2019-01-19T18:41:14.163Z,1.03
2019-01-19T18:43:08.557Z,0.99
2019-01-19T18:44:08.511Z,0.99
2019-01-19T18:46:01.894Z,0.94
2019-01-19T18:47:01.848Z,1.00
2019-01-19T18:48:55.480Z,0.94
2019-01-19T18:49:55.437Z,1.03
2019-01-19T18:51:49.798Z,0.96
2019-01-19T18:52:49.781Z,1.03
2019-01-19T18:54:43.339Z,0.99
2019-01-19T18:55:43.310Z,1.03
2019-01-19T18:57:37.694Z,0.91
2019-01-19T18:58:37.667Z,0.94
2019-01-19T18:59:37.645Z,0.99
2019-01-19T19:00:37.637Z,0.91
2019-01-19T19:01:37.633Z,0.84
2019-01-19T19:02:37.614Z,0.84
2019-01-19T19:03:37.604Z,0.81
2019-01-19T19:04:37.592Z,0.88
2019-01-19T19:05:37.586Z,0.87
2019-01-19T19:06:37.566Z,0.78
2019-01-19T19:07:37.592Z,0.81
2019-01-19T19:08:37.537Z,0.73
2019-01-19T19:09:37.530Z,0.78
2019-01-19T19:10:37.526Z,0.87
2019-01-19T19:11:37.505Z,0.78
2019-01-19T19:12:37.494Z,0.80
2019-01-19T19:13:37.473Z,0.70
2019-01-19T19:14:38.242Z,0.80
2019-01-19T19:15:37.449Z,0.70
2019-01-19T19:16:37.447Z,0.69
2019-01-19T19:17:37.430Z,0.66
2019-01-19T19:18:37.412Z,0.67
2019-01-19T19:19:37.824Z,0.76
2019-01-19T19:20:37.391Z,0.70
2019-01-19T19:21:37.381Z,0.64
2019-01-19T19:22:37.367Z,0.66
2019-01-19T19:23:37.356Z,0.69
2019-01-19T19:24:37.344Z,0.66
2019-01-19T19:25:37.331Z,0.78
2019-01-19T19:26:37.317Z,0.72
2019-01-19T19:27:37.301Z,0.70
2019-01-19T19:28:37.295Z,0.67
2019-01-19T19:29:37.282Z,0.70
2019-01-19T19:30:37.266Z,0.66
2019-01-19T19:31:37.250Z,0.62
2019-01-19T19:32:37.240Z,0.59
2019-01-19T19:33:37.231Z,0.53
2019-01-19T19:34:37.217Z,0.60
2019-01-19T19:35:37.208Z,0.45
2019-01-19T19:36:37.192Z,0.44
2019-01-19T19:37:37.176Z,0.37
2019-01-19T19:38:37.168Z,0.41
2019-01-19T19:39:37.155Z,0.37
2019-01-19T19:40:37.141Z,0.37
2019-01-19T19:41:37.132Z,0.43
2019-01-19T19:42:37.118Z,0.43
2019-01-19T19:43:37.121Z,0.41
2019-01-19T19:44:37.091Z,0.44
2019-01-19T19:45:37.084Z,0.35
2019-01-19T19:46:37.069Z,0.33
2019-01-19T19:47:37.741Z,0.44
2019-01-19T19:48:37.050Z,0.35
2019-01-19T19:49:37.033Z,0.33
2019-01-19T19:50:37.020Z,0.33
2019-01-19T19:51:37.007Z,0.40
2019-01-19T19:52:36.984Z,0.33
2019-01-19T19:53:36.983Z,0.33
2019-01-19T19:54:36.968Z,0.32
2019-01-19T19:55:36.959Z,0.26
2019-01-19T19:56:36.954Z,0.26
2019-01-19T19:57:36.936Z,0.27
2019-01-19T19:58:36.919Z,0.22
2019-01-19T19:59:36.905Z,0.07
2019-01-19T20:00:36.902Z,0.11
2019-01-19T20:01:36.884Z,0.11
2019-01-19T20:02:36.870Z,0.09
2019-01-19T20:03:36.848Z,0.09
2019-01-19T20:04:36.845Z,0.04
2019-01-19T20:05:36.831Z,0.09
2019-01-19T20:06:36.834Z,0.02
2019-01-19T20:07:36.809Z,0.15
2019-01-19T20:08:36.792Z,0.09
2019-01-19T20:09:36.780Z,0.08
2019-01-19T20:10:36.771Z,0.05
2019-01-19T20:11:36.752Z,0.09
2019-01-19T20:12:36.741Z,0.02
2019-01-19T20:13:36.732Z,0.04
2019-01-19T20:14:36.723Z,0.07
2019-01-19T20:15:36.711Z,-0.01
2019-01-19T20:16:36.693Z,0.00
2019-01-19T20:17:37.249Z,0.00
2019-01-19T20:18:36.666Z,0.12
2019-01-19T20:19:36.660Z,0.00
2019-01-19T20:20:36.644Z,0.04
2019-01-19T20:21:37.974Z,-0.04
2019-01-19T20:22:36.618Z,-0.07
2019-01-19T20:23:36.608Z,-0.01
2019-01-19T20:24:36.589Z,-0.01
2019-01-19T20:25:36.581Z,0.00
2019-01-19T20:26:36.633Z,-0.03
2019-01-19T20:27:36.557Z,-0.14
2019-01-19T20:28:36.541Z,-0.11
2019-01-19T20:29:36.529Z,-0.13
2019-01-19T20:30:36.517Z,0.00
2019-01-19T20:31:36.510Z,-0.09
2019-01-19T20:32:36.494Z,-0.07
2019-01-19T20:33:36.482Z,-0.07
2019-01-19T20:34:36.471Z,-0.14
2019-01-19T20:35:36.456Z,-0.09
2019-01-19T20:36:36.441Z,-0.10
2019-01-19T20:37:37.835Z,-0.09
2019-01-19T20:38:36.416Z,-0.11
2019-01-19T20:39:36.409Z,-0.22
2019-01-19T20:40:36.396Z,-0.13
2019-01-19T20:41:36.382Z,-0.21
2019-01-19T20:42:36.369Z,-0.17
2019-01-19T20:43:36.350Z,-0.17
2019-01-19T20:44:36.329Z,-0.07
2019-01-19T20:45:36.328Z,-0.17
2019-01-19T20:46:36.313Z,-0.17
2019-01-19T20:47:36.311Z,-0.17
2019-01-19T20:48:36.292Z,-0.32
2019-01-19T20:49:36.279Z,-0.31
2019-01-19T20:50:36.270Z,-0.22
2019-01-19T20:51:36.256Z,-0.22
2019-01-19T20:52:36.236Z,-0.27
2019-01-19T20:53:36.763Z,-0.24
2019-01-19T20:54:36.210Z,-0.22
2019-01-19T20:55:36.205Z,-0.27
2019-01-19T20:56:36.387Z,-0.28
2019-01-19T20:57:36.238Z,-0.32
2019-01-19T20:58:36.178Z,-0.24
2019-01-19T20:59:36.153Z,-0.31
2019-01-19T21:00:36.142Z,-0.32
2019-01-19T21:01:36.126Z,-0.29
2019-01-19T21:02:36.110Z,-0.29
2019-01-19T21:03:36.107Z,-0.29
2019-01-19T21:04:36.094Z,-0.35
2019-01-19T21:05:36.073Z,-0.31
2019-01-19T21:06:36.071Z,-0.34
2019-01-19T21:07:37.747Z,-0.29
2019-01-19T21:08:40.891Z,-0.29
2019-01-19T21:09:39.374Z,-0.31
2019-01-19T21:10:38.681Z,-0.34
2019-01-19T21:11:36.442Z,-0.43
2019-01-19T21:12:38.646Z,-0.40
2019-01-19T21:13:36.546Z,-0.42
2019-01-19T21:14:36.131Z,-0.38
2019-01-19T21:15:35.954Z,-0.40
2019-01-19T21:16:35.944Z,-0.43
2019-01-19T21:17:36.137Z,-0.50
2019-01-19T21:18:36.033Z,-0.47
2019-01-19T21:19:35.906Z,-0.46
2019-01-19T21:20:35.896Z,-0.42
2019-01-19T21:21:36.372Z,-0.50
2019-01-19T21:22:37.121Z,-0.55
2019-01-19T21:23:35.851Z,-0.57
2019-01-19T21:24:36.690Z,-0.52
2019-01-19T21:25:35.831Z,-0.57
2019-01-19T21:26:35.810Z,-0.50
2019-01-19T21:27:35.800Z,-0.52
2019-01-19T21:28:35.790Z,-0.58
2019-01-19T21:29:35.771Z,-0.60
2019-01-19T21:30:41.635Z,-0.60
2019-01-19T21:31:35.757Z,-0.68
2019-01-19T21:32:35.740Z,-0.68
2019-01-19T21:33:38.289Z,-0.64
2019-01-19T21:34:35.709Z,-0.68
2019-01-19T21:35:35.700Z,-0.71
2019-01-19T21:36:35.692Z,-0.68
2019-01-19T21:37:35.678Z,-0.64
2019-01-19T21:38:35.665Z,-0.61
2019-01-19T21:39:35.646Z,-0.64
2019-01-19T21:40:39.189Z,-0.67
2019-01-19T21:41:35.623Z,-0.61
2019-01-19T21:42:35.619Z,-0.67
2019-01-19T21:43:35.601Z,-0.71
2019-01-19T21:44:35.588Z,-0.63